Grande Europa — ICGE — position and weather

sailwx.info

Track history (hours):
 
Tides and Currents Weather Stations Pressure Air Temp Water Temp Dewpoint Dewpoint Depression Visibility Wind Speed Wind Dir Waves Ship Positions

Grande Europa

Last reported at 2017-Feb-21 18:28 UTC. Time now 2017-Feb-21 19:05 UTC.
Position N 50°54' W 001°25'.

Length 183 m; draft 9.3 m.

Type: Ship (hazmat cat D). MMSI: 247206000.

Date/timePositionNaut miles runAvg speedWind from/ knotsBaromVisibWave heightAir tempDewpointWater temp
2017-Feb-21 18:28N 50°54' W 001°25'0 0.0
2017-Feb-21 17:31N 50°54' W 001°25'0 0.0
2017-Feb-21 16:25N 50°54' W 001°25'5 5.4
2017-Feb-21 15:33N 50°51' W 001°20'1110.8
2017-Feb-21 14:33N 50°45' W 001°06'1413.9
2017-Feb-21 13:34N 50°37' W 000°48'1616.5
2017-Feb-21 12:34N 50°33' W 000°23'1717.1
2017-Feb-21 11:33N 50°34' E 000°04'1817.7
2017-Feb-21 10:33N 50°38' E 000°31'1717.2
2017-Feb-21 09:33N 50°48' E 000°54'1716.6
2017-Feb-21 08:33N 50°58' E 001°14'1616.1
2017-Feb-21 07:34N 51°08' E 001°34'1616.2
2017-Feb-21 06:34N 51°19' E 001°53'1413.5
2017-Feb-21 05:34N 51°21' E 002°14'1716.6
2017-Feb-21 04:34N 51°22' E 002°41'1514.8
2017-Feb-21 03:33N 51°24' E 003°04'1615.5
2017-Feb-21 02:33N 51°25' E 003°29'10 9.5
2017-Feb-21 01:33N 51°23' E 003°44'1211.5
2017-Feb-21 00:33N 51°24' E 004°02'1010.3
2017-Feb-20 23:33N 51°19' E 004°16'3 3.4
2017-Feb-20 22:34N 51°16' E 004°17'2 2.1
2017-Feb-20 21:34N 51°17' E 004°14'1 0.6
2017-Feb-20 20:31N 51°16' E 004°13'0 0.0
2017-Feb-20 19:31N 51°16' E 004°13'0 0.0
2017-Feb-20 18:31N 51°16' E 004°13'0 0.0
2017-Feb-20 17:31N 51°16' E 004°13'0 0.0
2017-Feb-20 16:31N 51°16' E 004°13'0 0.0
2017-Feb-20 15:31N 51°16' E 004°13'0 0.0
2017-Feb-20 14:28N 51°16' E 004°13'0 0.0
2017-Feb-20 13:31N 51°16' E 004°13'0 0.0
2017-Feb-20 12:31N 51°16' E 004°13'0 0.0
2017-Feb-20 11:31N 51°16' E 004°13'0 0.0
2017-Feb-20 10:33N 51°16' E 004°13'1 1.3
2017-Feb-20 09:31N 51°17' E 004°15'5 4.9
2017-Feb-20 08:33N 51°21' E 004°14'1110.7
2017-Feb-20 07:33N 51°25' E 003°58'1111.0
2017-Feb-20 06:33N 51°26' E 003°40'1111.4
2017-Feb-20 05:34N 51°33' E 003°25'1312.9
2017-Feb-20 04:33N 51°44' E 003°14'1515.1
2017-Feb-20 03:32N 51°58' E 003°19'1615.7
2017-Feb-20 02:33N 52°14' E 003°22'1313.2
2017-Feb-20 01:32N 52°27' E 003°27'1515.0
2017-Feb-20 00:32N 52°41' E 003°35'1915.0
2017-Feb-19 23:14N 52°55' E 003°57'1014.8
2017-Feb-19 22:33N 53°02' E 004°10'31915.6
2017-Feb-19 02:07N 57°33' E 009°05'814.6
2017-Feb-19 01:33N 57°38' E 009°17'1414.1
2017-Feb-19 00:33N 57°46' E 009°40'1414.2
2017-Feb-18 23:32N 57°49' E 010°06'1414.8
2017-Feb-18 22:33N 57°51' E 010°33'1514.8
2017-Feb-18 21:33N 57°52' E 011°00'1414.2
2017-Feb-18 20:34N 57°51' E 011°27'1111.5
2017-Feb-18 19:33N 57°59' E 011°43'2 1.7
2017-Feb-18 18:30N 58°01' E 011°42'0 0.0
2017-Feb-18 17:33N 58°01' E 011°42'0 0.0
2017-Feb-18 16:33N 58°01' E 011°42'0 0.0
2017-Feb-18 15:33N 58°01' E 011°42'0 0.0
2017-Feb-18 14:30N 58°01' E 011°42'0 0.0
2017-Feb-18 13:33N 58°01' E 011°42'0 0.0
2017-Feb-18 12:33N 58°01' E 011°42'0 0.0
2017-Feb-18 11:33N 58°01' E 011°42'0 0.0
2017-Feb-18 10:33N 58°01' E 011°42'0 0.0
2017-Feb-18 09:33N 58°01' E 011°42'0 0.0
2017-Feb-18 08:33N 58°01' E 011°42'2 2.1
2017-Feb-18 07:33N 57°59' E 011°43'1010.4
2017-Feb-18 06:34N 57°52' E 011°27'1211.7
2017-Feb-18 05:33N 57°51' E 011°05'1515.5
2017-Feb-18 04:33N 57°50' E 010°36'1514.8
2017-Feb-18 03:31N 57°46' E 010°09'1515.1
2017-Feb-18 02:33N 57°44' E 009°41'1715.3
2017-Feb-18 01:28N 57°41' E 009°11'1515.9
2017-Feb-18 00:33N 57°28' E 008°58'3214.3
2017-Feb-17 22:20N 57°11' E 008°09'1013.4
2017-Feb-17 21:33N 57°17' E 008°24'1514.9
2017-Feb-17 20:32N 57°28' E 008°42'6 4.8
2017-Feb-17 19:21N 57°33' E 008°48'1 1.4
2017-Feb-17 18:22N 57°33' E 008°46'10512.0
2017-Feb-17 09:33N 55°57' E 007°27'1817.9
2017-Feb-17 08:33N 55°40' E 007°19'1515.2
2017-Feb-17 07:33N 55°28' E 007°35'1717.0
2017-Feb-17 06:33N 55°24' E 008°05'1211.9
2017-Feb-17 05:33N 55°29' E 008°24'2 1.5
2017-Feb-17 04:26N 55°28' E 008°27'0 0.0
2017-Feb-17 03:32N 55°28' E 008°27'0 0.0
2017-Feb-17 02:32N 55°28' E 008°27'0 0.0
2017-Feb-17 01:27N 55°28' E 008°27'0 0.0
2017-Feb-17 00:30N 55°28' E 008°27'0 0.0
2017-Feb-16 23:33N 55°28' E 008°27'0 0.0
2017-Feb-16 22:33N 55°28' E 008°27'0 0.0
2017-Feb-16 21:33N 55°28' E 008°27'0 0.0
2017-Feb-16 20:33N 55°28' E 008°27'0 0.0
2017-Feb-16 19:30N 55°28' E 008°27'0 0.0
2017-Feb-16 18:24N 55°28' E 008°27'0 0.0
2017-Feb-16 17:30N 55°28' E 008°27'0 0.0
2017-Feb-16 16:33N 55°28' E 008°27'0 0.0
2017-Feb-16 15:33N 55°28' E 008°27'4 3.8
2017-Feb-16 14:33N 55°28' E 008°21'1312.9
2017-Feb-16 13:33N 55°20' E 008°02'1717.2
2017-Feb-16 12:33N 55°10' E 007°39'1717.4
2017-Feb-16 11:33N 54°59' E 007°15'1817.7
2017-Feb-16 10:33N 54°50' E 006°48'5417.7
2017-Feb-16 07:29N 54°24' E 005°26'8415.7
2017-Feb-16 02:08N 53°26' E 003°42'915.7
2017-Feb-16 01:32N 53°18' E 003°36'9915.7
2017-Feb-15 19:13N 51°46' E 002°35'1217.4
2017-Feb-15 18:31N 51°36' E 002°22'1718.0
2017-Feb-15 17:33N 51°24' E 002°03'1919.2
2017-Feb-15 16:33N 51°09' E 001°44'2120.9
2017-Feb-15 15:33N 50°51' E 001°26'1919.4
2017-Feb-15 14:33N 50°36' E 001°08'2118.7
2017-Feb-15 13:25N 50°27' E 000°37'1719.6
2017-Feb-15 12:33N 50°23' E 000°12'2020.4
2017-Feb-15 11:33N 50°18' W 000°19'8220.5
2017-Feb-15 07:33N 49°56' W 002°23'1818.0
2017-Feb-15 06:33N 49°51' W 002°50'1817.6
2017-Feb-15 05:33N 49°50' W 003°17'1717.4
2017-Feb-15 04:33N 49°51' W 003°44'1716.8
2017-Feb-15 03:33N 49°51' W 004°10'1716.6
2017-Feb-15 02:33N 49°51' W 004°36'2216.3
2017-Feb-15 01:13N 49°51' W 005°10'1316.0
2017-Feb-15 00:23N 49°52' W 005°30'1816.4
2017-Feb-14 23:16N 49°55' W 005°58'1217.2
2017-Feb-14 22:33N 50°07' W 006°02'1817.3
2017-Feb-14 21:32N 50°24' W 006°07'2017.5
2017-Feb-14 20:23N 50°39' W 006°28'1617.4
2017-Feb-14 19:29N 50°50' W 006°45'3317.4
2017-Feb-14 17:33N 51°14' W 007°22'1717.1
2017-Feb-14 16:33N 51°25' W 007°43'1716.9
2017-Feb-14 15:33N 51°37' W 008°03'1414.4
2017-Feb-14 14:33N 51°49' W 008°16'2 2.2
2017-Feb-14 13:31N 51°50' W 008°20'0 0.0
2017-Feb-14 12:31N 51°50' W 008°20'0 0.0
2017-Feb-14 11:31N 51°50' W 008°20'0 0.0
2017-Feb-14 10:31N 51°50' W 008°20'0 0.0
2017-Feb-14 09:31N 51°50' W 008°20'2 1.7
2017-Feb-14 08:33N 51°51' W 008°17'7 7.5
2017-Feb-14 07:33N 51°44' W 008°14'9 9.4
2017-Feb-14 06:33N 51°45' W 007°59'1212.5
2017-Feb-14 05:33N 51°40' W 007°40'1615.8
2017-Feb-14 04:33N 51°40' W 007°15'1816.7
2017-Feb-14 03:30N 51°38' W 006°47'6917.5
2017-Feb-13 23:33N 51°28' W 004°57'1919.3
2017-Feb-13 22:34N 51°25' W 004°26'2318.6
2017-Feb-13 21:19N 51°22' W 003°50'2017.4
2017-Feb-13 20:11N 51°21' W 003°18'812.3
2017-Feb-13 19:33N 51°22' W 003°06'1312.8
2017-Feb-13 18:33N 51°29' W 002°49'3 3.4
2017-Feb-13 17:33N 51°30' W 002°43'0 0.2
2017-Feb-13 16:34N 51°30' W 002°43'0 0.0
2017-Feb-13 15:34N 51°30' W 002°43'0 0.0
2017-Feb-13 14:34N 51°30' W 002°43'0 0.0
2017-Feb-13 13:34N 51°30' W 002°43'0 0.0
2017-Feb-13 12:34N 51°30' W 002°43'0 0.0
2017-Feb-13 11:34N 51°30' W 002°43'0 0.0
2017-Feb-13 10:34N 51°30' W 002°43'0 0.0
2017-Feb-13 09:33N 51°30' W 002°43'0 0.0
2017-Feb-13 08:34N 51°30' W 002°43'0 0.0
2017-Feb-13 07:33N 51°30' W 002°43'0 0.0
2017-Feb-13 06:34N 51°30' W 002°43'0 0.0
2017-Feb-13 05:33N 51°30' W 002°43'0 0.0
2017-Feb-13 04:34N 51°30' W 002°43'0 0.0
2017-Feb-13 03:33N 51°30' W 002°43'0 0.0
2017-Feb-13 02:34N 51°30' W 002°43'0 0.0
2017-Feb-13 01:34N 51°30' W 002°43'0 0.0
2017-Feb-13 00:34N 51°30' W 002°43'0 0.0
2017-Feb-12 23:34N 51°30' W 002°43'0 0.0
2017-Feb-12 22:34N 51°30' W 002°43'0 0.0
2017-Feb-12 21:34N 51°30' W 002°43'0 0.0
2017-Feb-12 20:34N 51°30' W 002°43'0 0.3
2017-Feb-12 19:34N 51°30' W 002°43'2 2.2
2017-Feb-12 18:34N 51°30' W 002°47'1818.0
2017-Feb-12 17:34N 51°21' W 003°12'3718.3
2017-Feb-12 15:33N 51°16' W 004°10'1818.4
2017-Feb-12 14:34N 51°05' W 004°34'1717.3
2017-Feb-12 13:33N 50°53' W 004°54'1716.6
2017-Feb-12 12:33N 50°42' W 005°14'1615.8
2017-Feb-12 11:34N 50°32' W 005°33'1515.2
2017-Feb-12 10:34N 50°22' W 005°50'  
Track history (hours):
 
Tides and Currents Weather Stations Pressure Air Temp Water Temp Dewpoint Dewpoint Depression Visibility Wind Speed Wind Dir Waves Ship Positions

Grande Europa

Last reported at 2017-Feb-21 18:28 UTC. Time now 2017-Feb-21 19:05 UTC.
Position N 50°54' W 001°25'.

Length 183 m; draft 9.3 m.

Type: Ship (hazmat cat D). MMSI: 247206000.

Date/timePositionNaut miles runAvg speedWind from/ knotsBaromVisibWave heightAir tempDewpointWater temp
2017-Feb-21 18:28N 50°54' W 001°25'0 0.0
2017-Feb-21 17:31N 50°54' W 001°25'0 0.0
2017-Feb-21 16:25N 50°54' W 001°25'5 5.4
2017-Feb-21 15:33N 50°51' W 001°20'1110.8
2017-Feb-21 14:33N 50°45' W 001°06'1413.9
2017-Feb-21 13:34N 50°37' W 000°48'1616.5
2017-Feb-21 12:34N 50°33' W 000°23'1717.1
2017-Feb-21 11:33N 50°34' E 000°04'1817.7
2017-Feb-21 10:33N 50°38' E 000°31'1717.2
2017-Feb-21 09:33N 50°48' E 000°54'1716.6
2017-Feb-21 08:33N 50°58' E 001°14'1616.1
2017-Feb-21 07:34N 51°08' E 001°34'1616.2
2017-Feb-21 06:34N 51°19' E 001°53'1413.5
2017-Feb-21 05:34N 51°21' E 002°14'1716.6
2017-Feb-21 04:34N 51°22' E 002°41'1514.8
2017-Feb-21 03:33N 51°24' E 003°04'1615.5
2017-Feb-21 02:33N 51°25' E 003°29'10 9.5
2017-Feb-21 01:33N 51°23' E 003°44'1211.5
2017-Feb-21 00:33N 51°24' E 004°02'1010.3
2017-Feb-20 23:33N 51°19' E 004°16'3 3.4
2017-Feb-20 22:34N 51°16' E 004°17'2 2.1
2017-Feb-20 21:34N 51°17' E 004°14'1 0.6
2017-Feb-20 20:31N 51°16' E 004°13'0 0.0
2017-Feb-20 19:31N 51°16' E 004°13'0 0.0
2017-Feb-20 18:31N 51°16' E 004°13'0 0.0
2017-Feb-20 17:31N 51°16' E 004°13'0 0.0
2017-Feb-20 16:31N 51°16' E 004°13'0 0.0
2017-Feb-20 15:31N 51°16' E 004°13'0 0.0
2017-Feb-20 14:28N 51°16' E 004°13'0 0.0
2017-Feb-20 13:31N 51°16' E 004°13'0 0.0
2017-Feb-20 12:31N 51°16' E 004°13'0 0.0
2017-Feb-20 11:31N 51°16' E 004°13'0 0.0
2017-Feb-20 10:33N 51°16' E 004°13'1 1.3
2017-Feb-20 09:31N 51°17' E 004°15'5 4.9
2017-Feb-20 08:33N 51°21' E 004°14'1110.7
2017-Feb-20 07:33N 51°25' E 003°58'1111.0
2017-Feb-20 06:33N 51°26' E 003°40'1111.4
2017-Feb-20 05:34N 51°33' E 003°25'1312.9
2017-Feb-20 04:33N 51°44' E 003°14'1515.1
2017-Feb-20 03:32N 51°58' E 003°19'1615.7
2017-Feb-20 02:33N 52°14' E 003°22'1313.2
2017-Feb-20 01:32N 52°27' E 003°27'1515.0
2017-Feb-20 00:32N 52°41' E 003°35'1915.0
2017-Feb-19 23:14N 52°55' E 003°57'1014.8
2017-Feb-19 22:33N 53°02' E 004°10'31915.6
2017-Feb-19 02:07N 57°33' E 009°05'814.6
2017-Feb-19 01:33N 57°38' E 009°17'1414.1
2017-Feb-19 00:33N 57°46' E 009°40'1414.2
2017-Feb-18 23:32N 57°49' E 010°06'1414.8
2017-Feb-18 22:33N 57°51' E 010°33'1514.8
2017-Feb-18 21:33N 57°52' E 011°00'1414.2
2017-Feb-18 20:34N 57°51' E 011°27'1111.5
2017-Feb-18 19:33N 57°59' E 011°43'2 1.7
2017-Feb-18 18:30N 58°01' E 011°42'0 0.0
2017-Feb-18 17:33N 58°01' E 011°42'0 0.0
2017-Feb-18 16:33N 58°01' E 011°42'0 0.0
2017-Feb-18 15:33N 58°01' E 011°42'0 0.0
2017-Feb-18 14:30N 58°01' E 011°42'0 0.0
2017-Feb-18 13:33N 58°01' E 011°42'0 0.0
2017-Feb-18 12:33N 58°01' E 011°42'0 0.0
2017-Feb-18 11:33N 58°01' E 011°42'0 0.0
2017-Feb-18 10:33N 58°01' E 011°42'0 0.0
2017-Feb-18 09:33N 58°01' E 011°42'0 0.0
2017-Feb-18 08:33N 58°01' E 011°42'2 2.1
2017-Feb-18 07:33N 57°59' E 011°43'1010.4
2017-Feb-18 06:34N 57°52' E 011°27'1211.7
2017-Feb-18 05:33N 57°51' E 011°05'1515.5
2017-Feb-18 04:33N 57°50' E 010°36'1514.8
2017-Feb-18 03:31N 57°46' E 010°09'1515.1
2017-Feb-18 02:33N 57°44' E 009°41'1715.3
2017-Feb-18 01:28N 57°41' E 009°11'1515.9
2017-Feb-18 00:33N 57°28' E 008°58'3214.3
2017-Feb-17 22:20N 57°11' E 008°09'1013.4
2017-Feb-17 21:33N 57°17' E 008°24'1514.9
2017-Feb-17 20:32N 57°28' E 008°42'6 4.8
2017-Feb-17 19:21N 57°33' E 008°48'1 1.4
2017-Feb-17 18:22N 57°33' E 008°46'10512.0
2017-Feb-17 09:33N 55°57' E 007°27'1817.9
2017-Feb-17 08:33N 55°40' E 007°19'1515.2
2017-Feb-17 07:33N 55°28' E 007°35'1717.0
2017-Feb-17 06:33N 55°24' E 008°05'1211.9
2017-Feb-17 05:33N 55°29' E 008°24'2 1.5
2017-Feb-17 04:26N 55°28' E 008°27'0 0.0
2017-Feb-17 03:32N 55°28' E 008°27'0 0.0
2017-Feb-17 02:32N 55°28' E 008°27'0 0.0
2017-Feb-17 01:27N 55°28' E 008°27'0 0.0
2017-Feb-17 00:30N 55°28' E 008°27'0 0.0
2017-Feb-16 23:33N 55°28' E 008°27'0 0.0
2017-Feb-16 22:33N 55°28' E 008°27'0 0.0
2017-Feb-16 21:33N 55°28' E 008°27'0 0.0
2017-Feb-16 20:33N 55°28' E 008°27'0 0.0
2017-Feb-16 19:30N 55°28' E 008°27'0 0.0
2017-Feb-16 18:24N 55°28' E 008°27'0 0.0
2017-Feb-16 17:30N 55°28' E 008°27'0 0.0
2017-Feb-16 16:33N 55°28' E 008°27'0 0.0
2017-Feb-16 15:33N 55°28' E 008°27'4 3.8
2017-Feb-16 14:33N 55°28' E 008°21'1312.9
2017-Feb-16 13:33N 55°20' E 008°02'1717.2
2017-Feb-16 12:33N 55°10' E 007°39'1717.4
2017-Feb-16 11:33N 54°59' E 007°15'1817.7
2017-Feb-16 10:33N 54°50' E 006°48'5417.7
2017-Feb-16 07:29N 54°24' E 005°26'8415.7
2017-Feb-16 02:08N 53°26' E 003°42'915.7
2017-Feb-16 01:32N 53°18' E 003°36'9915.7
2017-Feb-15 19:13N 51°46' E 002°35'1217.4
2017-Feb-15 18:31N 51°36' E 002°22'1718.0
2017-Feb-15 17:33N 51°24' E 002°03'1919.2
2017-Feb-15 16:33N 51°09' E 001°44'2120.9
2017-Feb-15 15:33N 50°51' E 001°26'1919.4
2017-Feb-15 14:33N 50°36' E 001°08'2118.7
2017-Feb-15 13:25N 50°27' E 000°37'1719.6
2017-Feb-15 12:33N 50°23' E 000°12'2020.4
2017-Feb-15 11:33N 50°18' W 000°19'8220.5
2017-Feb-15 07:33N 49°56' W 002°23'1818.0
2017-Feb-15 06:33N 49°51' W 002°50'1817.6
2017-Feb-15 05:33N 49°50' W 003°17'1717.4
2017-Feb-15 04:33N 49°51' W 003°44'1716.8
2017-Feb-15 03:33N 49°51' W 004°10'1716.6
2017-Feb-15 02:33N 49°51' W 004°36'2216.3
2017-Feb-15 01:13N 49°51' W 005°10'1316.0
2017-Feb-15 00:23N 49°52' W 005°30'1816.4
2017-Feb-14 23:16N 49°55' W 005°58'1217.2
2017-Feb-14 22:33N 50°07' W 006°02'1817.3
2017-Feb-14 21:32N 50°24' W 006°07'2017.5
2017-Feb-14 20:23N 50°39' W 006°28'1617.4
2017-Feb-14 19:29N 50°50' W 006°45'3317.4
2017-Feb-14 17:33N 51°14' W 007°22'1717.1
2017-Feb-14 16:33N 51°25' W 007°43'1716.9
2017-Feb-14 15:33N 51°37' W 008°03'1414.4
2017-Feb-14 14:33N 51°49' W 008°16'2 2.2
2017-Feb-14 13:31N 51°50' W 008°20'0 0.0
2017-Feb-14 12:31N 51°50' W 008°20'0 0.0
2017-Feb-14 11:31N 51°50' W 008°20'0 0.0
2017-Feb-14 10:31N 51°50' W 008°20'0 0.0
2017-Feb-14 09:31N 51°50' W 008°20'2 1.7
2017-Feb-14 08:33N 51°51' W 008°17'7 7.5
2017-Feb-14 07:33N 51°44' W 008°14'9 9.4
2017-Feb-14 06:33N 51°45' W 007°59'1212.5
2017-Feb-14 05:33N 51°40' W 007°40'1615.8
2017-Feb-14 04:33N 51°40' W 007°15'1816.7
2017-Feb-14 03:30N 51°38' W 006°47'6917.5
2017-Feb-13 23:33N 51°28' W 004°57'1919.3
2017-Feb-13 22:34N 51°25' W 004°26'2318.6
2017-Feb-13 21:19N 51°22' W 003°50'2017.4
2017-Feb-13 20:11N 51°21' W 003°18'812.3
2017-Feb-13 19:33N 51°22' W 003°06'1312.8
2017-Feb-13 18:33N 51°29' W 002°49'3 3.4
2017-Feb-13 17:33N 51°30' W 002°43'0 0.2
2017-Feb-13 16:34N 51°30' W 002°43'0 0.0
2017-Feb-13 15:34N 51°30' W 002°43'0 0.0
2017-Feb-13 14:34N 51°30' W 002°43'0 0.0
2017-Feb-13 13:34N 51°30' W 002°43'0 0.0
2017-Feb-13 12:34N 51°30' W 002°43'0 0.0
2017-Feb-13 11:34N 51°30' W 002°43'0 0.0
2017-Feb-13 10:34N 51°30' W 002°43'0 0.0
2017-Feb-13 09:33N 51°30' W 002°43'0 0.0
2017-Feb-13 08:34N 51°30' W 002°43'0 0.0
2017-Feb-13 07:33N 51°30' W 002°43'0 0.0
2017-Feb-13 06:34N 51°30' W 002°43'0 0.0
2017-Feb-13 05:33N 51°30' W 002°43'0 0.0
2017-Feb-13 04:34N 51°30' W 002°43'0 0.0
2017-Feb-13 03:33N 51°30' W 002°43'0 0.0
2017-Feb-13 02:34N 51°30' W 002°43'0 0.0
2017-Feb-13 01:34N 51°30' W 002°43'0 0.0
2017-Feb-13 00:34N 51°30' W 002°43'0 0.0
2017-Feb-12 23:34N 51°30' W 002°43'0 0.0
2017-Feb-12 22:34N 51°30' W 002°43'0 0.0
2017-Feb-12 21:34N 51°30' W 002°43'0 0.0
2017-Feb-12 20:34N 51°30' W 002°43'0 0.3
2017-Feb-12 19:34N 51°30' W 002°43'2 2.2
2017-Feb-12 18:34N 51°30' W 002°47'1818.0
2017-Feb-12 17:34N 51°21' W 003°12'3718.3
2017-Feb-12 15:33N 51°16' W 004°10'1818.4
2017-Feb-12 14:34N 51°05' W 004°34'1717.3
2017-Feb-12 13:33N 50°53' W 004°54'1716.6
2017-Feb-12 12:33N 50°42' W 005°14'1615.8
2017-Feb-12 11:34N 50°32' W 005°33'1515.2
2017-Feb-12 10:34N 50°22' W 005°50'  

Dump ship's entire track history